Time;durP1;ratioP1;P1;durP2;ratioP2;P2;SDS_P1;SDS_P2;PMS_P1;PMS_P2;Temp;Humidity;BMP_temperature;BMP_pressure;BME280_temperature;BME280_humidity;BME280_pressure;Samples;Min_cycle;Max_cycle;Signal;HPM_P1;HPM_P2
2022/06/04 00:00:53;;;;;;;6.65;4.20;;;16.80;99.90;;;;;;5077240;28;20599;-69
2022/06/04 00:03:19;;;;;;;4.18;3.78;;;16.70;99.90;;;;;;5076614;28;20540;-69
2022/06/04 00:05:48;;;;;;;6.47;3.60;;;16.60;99.90;;;;;;5076894;28;20174;-69
2022/06/04 00:08:15;;;;;;;5.15;3.83;;;16.60;99.90;;;;;;5075355;28;20193;-69
2022/06/04 00:16:18;;;;;;;4.57;3.58;;;16.60;99.90;;;;;;5076974;28;20181;-69
2022/06/04 00:18:44;;;;;;;4.28;3.70;;;16.50;99.90;;;;;;5076118;28;20193;-69
2022/06/04 00:21:12;;;;;;;4.07;3.67;;;16.40;99.90;;;;;;5076085;28;20557;-69
2022/06/04 00:23:38;;;;;;;6.00;3.90;;;16.20;99.90;;;;;;5074835;28;20220;-69
2022/06/04 00:26:07;;;;;;;5.07;3.80;;;16.10;99.90;;;;;;5076222;28;20174;-69
2022/06/04 00:28:34;;;;;;;4.13;3.70;;;16.10;99.90;;;;;;5076032;28;20186;-69
2022/06/04 00:31:00;;;;;;;4.22;3.83;;;16.00;99.90;;;;;;5075825;28;20186;-69
2022/06/04 00:33:27;;;;;;;4.50;4.10;;;15.90;99.90;;;;;;5075624;28;20204;-69
2022/06/04 00:35:55;;;;;;;5.57;3.90;;;15.80;99.90;;;;;;5075833;28;20174;-69
2022/06/04 00:38:23;;;;;;;6.35;3.63;;;15.70;99.90;;;;;;5075716;28;20249;-69
2022/06/04 00:41:08;;;;;;;4.32;3.92;;;15.70;99.90;;;;;;5075704;28;20193;-69
2022/06/04 00:44:00;;;;;;;4.28;3.40;;;15.60;99.90;;;;;;5076271;28;20169;-69
2022/06/04 00:46:41;;;;;;;3.58;3.28;;;15.70;99.90;;;;;;5075779;28;20182;-69
2022/06/04 00:49:13;;;;;;;4.97;4.28;;;15.60;99.90;;;;;;5074265;28;20178;-69
2022/06/04 00:51:41;;;;;;;4.00;3.60;;;15.60;99.90;;;;;;5075672;28;20662;-69
2022/06/04 00:54:07;;;;;;;6.38;3.80;;;15.60;99.90;;;;;;5074291;28;20589;-70
2022/06/04 00:56:39;;;;;;;5.82;4.22;;;15.50;99.90;;;;;;5075518;28;20700;-69
2022/06/04 00:59:35;;;;;;;5.72;3.90;;;15.40;99.90;;;;;;5075509;28;20671;-70
2022/06/04 01:02:19;;;;;;;4.53;4.03;;;15.40;99.90;;;;;;5074107;28;20194;-69
2022/06/04 01:05:04;;;;;;;5.40;3.80;;;15.30;99.90;;;;;;5073785;28;20213;-69
2022/06/04 01:08:06;;;;;;;4.20;3.80;;;15.20;99.90;;;;;;5075556;28;20207;-69
2022/06/04 01:10:37;;;;;;;6.93;3.83;;;15.20;99.90;;;;;;5075707;28;20197;-69
2022/06/04 01:13:21;;;;;;;3.90;3.53;;;15.30;99.90;;;;;;5074009;28;20197;-69
2022/06/04 01:16:18;;;;;;;4.47;3.92;;;15.30;99.90;;;;;;5073864;28;20190;-69
2022/06/04 01:19:15;;;;;;;5.20;4.07;;;15.30;99.90;;;;;;5075153;28;20241;-70
2022/06/04 01:22:09;;;;;;;5.85;3.97;;;15.30;99.90;;;;;;5075081;28;20197;-69
2022/06/04 01:24:50;;;;;;;4.78;3.90;;;15.30;99.90;;;;;;5073408;28;20189;-69
2022/06/04 01:27:28;;;;;;;5.82;3.92;;;15.30;99.90;;;;;;5073694;28;20273;-69
2022/06/04 01:29:54;;;;;;;5.65;3.85;;;15.20;99.90;;;;;;5075427;28;20170;-69
2022/06/04 01:32:37;;;;;;;5.53;4.38;;;15.20;99.90;;;;;;5074886;28;20543;-69
2022/06/04 01:35:25;;;;;;;6.10;4.28;;;15.30;99.90;;;;;;5073546;28;20661;-70
2022/06/04 01:38:00;;;;;;;6.03;4.60;;;15.30;99.90;;;;;;5073548;28;20217;-69
2022/06/04 01:43:25;;;;;;;5.30;4.53;;;15.30;99.90;;;;;;5074946;28;20641;-69
2022/06/04 01:45:55;;;;;;;5.10;4.43;;;15.30;99.90;;;;;;5073420;28;20235;-69
2022/06/04 01:48:23;;;;;;;5.38;4.68;;;15.30;99.90;;;;;;5074811;28;20627;-69
2022/06/04 01:50:53;;;;;;;6.45;4.43;;;15.30;99.90;;;;;;5074786;28;20193;-69
2022/06/04 01:53:22;;;;;;;7.05;4.85;;;15.30;99.90;;;;;;5074547;28;20547;-69
2022/06/04 01:55:54;;;;;;;6.28;4.70;;;15.30;99.90;;;;;;5074989;28;20177;-69
2022/06/04 01:58:43;;;;;;;4.88;4.20;;;15.30;99.90;;;;;;5074908;28;20185;-69
2022/06/04 02:01:13;;;;;;;5.40;4.85;;;15.30;99.90;;;;;;5073363;28;20658;-69
2022/06/04 02:03:48;;;;;;;6.80;4.75;;;15.30;99.90;;;;;;5072955;28;20231;-69
2022/06/04 02:06:28;;;;;;;5.15;4.30;;;15.20;99.90;;;;;;5074332;28;20238;-70
2022/06/04 02:08:58;;;;;;;5.15;4.00;;;15.10;99.90;;;;;;5074718;28;20209;-70
2022/06/04 02:11:25;;;;;;;4.68;4.10;;;15.00;99.90;;;;;;5074635;28;20193;-70
2022/06/04 02:13:57;;;;;;;8.10;4.72;;;14.90;99.90;;;;;;5073357;28;20204;-69
2022/06/04 02:16:33;;;;;;;5.18;4.40;;;14.80;99.90;;;;;;5075034;28;20233;-69
2022/06/04 02:19:00;;;;;;;5.05;4.25;;;14.70;99.90;;;;;;5075438;28;20162;-69
2022/06/04 02:21:27;;;;;;;6.40;4.35;;;14.60;99.90;;;;;;5075034;28;20198;-69
2022/06/04 02:23:55;;;;;;;5.38;4.50;;;14.50;99.90;;;;;;5075475;28;20170;-69
2022/06/04 02:26:21;;;;;;;5.30;4.35;;;14.50;99.90;;;;;;5074756;28;20162;-69
2022/06/04 02:28:47;;;;;;;5.57;4.53;;;14.40;99.90;;;;;;5074746;28;20197;-69
2022/06/04 02:31:30;;;;;;;5.55;4.72;;;14.40;99.90;;;;;;5074154;28;20185;-69
2022/06/04 02:34:14;;;;;;;4.80;4.07;;;14.40;99.90;;;;;;5073912;28;20548;-69
2022/06/04 02:37:01;;;;;;;5.32;4.05;;;14.40;99.90;;;;;;5073547;28;20211;-69
2022/06/04 02:39:50;;;;;;;5.03;4.20;;;14.40;99.90;;;;;;5074043;28;20182;-69
2022/06/04 02:42:26;;;;;;;4.80;4.30;;;14.30;99.90;;;;;;5074246;28;20200;-69
2022/06/04 02:44:54;;;;;;;5.80;4.50;;;14.20;99.90;;;;;;5074162;28;20153;-69
2022/06/04 02:47:26;;;;;;;7.80;4.43;;;14.10;99.90;;;;;;5074045;28;20173;-69
2022/06/04 02:50:08;;;;;;;4.75;4.13;;;14.10;99.90;;;;;;5073707;28;20499;-69
2022/06/04 02:52:35;;;;;;;5.82;4.43;;;14.10;99.90;;;;;;5073972;28;20150;-69
2022/06/04 02:55:07;;;;;;;4.65;4.18;;;14.10;99.90;;;;;;5072257;28;20182;-69
2022/06/04 02:57:36;;;;;;;8.18;4.97;;;14.00;99.90;;;;;;5074190;28;20276;-69
2022/06/04 03:00:05;;;;;;;4.95;4.45;;;13.90;99.90;;;;;;5073948;28;20278;-69
2022/06/04 03:02:33;;;;;;;5.93;4.28;;;13.90;99.90;;;;;;5073635;28;20681;-69
2022/06/04 03:05:11;;;;;;;8.95;4.53;;;13.90;99.90;;;;;;5073377;28;20217;-70
2022/06/04 03:07:40;;;;;;;6.15;4.65;;;13.90;99.90;;;;;;5073371;28;20261;-69
2022/06/04 03:10:11;;;;;;;7.13;4.78;;;14.00;99.90;;;;;;5073269;28;20178;-69
2022/06/04 03:12:37;;;;;;;6.55;4.20;;;13.90;99.90;;;;;;5073461;28;20158;-69
2022/06/04 03:15:04;;;;;;;7.15;4.60;;;14.00;99.90;;;;;;5073726;28;20192;-69
2022/06/04 03:17:29;;;;;;;6.95;4.72;;;13.90;99.90;;;;;;5073792;28;20678;-69
2022/06/04 03:19:56;;;;;;;6.32;5.25;;;13.90;99.90;;;;;;5073122;28;20178;-70
2022/06/04 03:22:21;;;;;;;8.35;4.78;;;14.00;99.90;;;;;;5073360;28;20162;-69
2022/06/04 03:24:47;;;;;;;5.65;4.70;;;13.90;99.90;;;;;;5073313;28;20159;-69
2022/06/04 03:27:13;;;;;;;5.88;4.80;;;13.90;99.90;;;;;;5073586;28;20700;-69
2022/06/04 03:29:38;;;;;;;8.50;4.90;;;13.90;99.90;;;;;;5073226;28;20204;-69
2022/06/04 03:32:05;;;;;;;8.43;4.90;;;13.90;99.90;;;;;;5073250;28;20281;-69
2022/06/04 03:34:31;;;;;;;5.47;4.78;;;13.90;99.90;;;;;;5071661;28;20184;-69
2022/06/04 03:36:56;;;;;;;8.00;4.85;;;13.90;99.90;;;;;;5073402;28;20293;-69
2022/06/04 03:39:22;;;;;;;5.13;4.18;;;13.80;99.90;;;;;;5073454;28;20220;-69
2022/06/04 03:41:48;;;;;;;6.57;5.05;;;13.80;99.90;;;;;;5073085;28;20273;-69
2022/06/04 03:44:14;;;;;;;7.60;4.47;;;13.80;99.90;;;;;;5073177;28;20173;-69
2022/06/04 03:46:39;;;;;;;5.93;4.97;;;13.70;99.90;;;;;;5074309;28;20169;-69
2022/06/04 03:49:05;;;;;;;7.97;4.82;;;13.70;99.90;;;;;;5076767;28;20181;-69
2022/06/04 03:51:31;;;;;;;6.32;5.00;;;13.70;99.90;;;;;;5076808;28;20197;-69
2022/06/04 03:53:57;;;;;;;8.05;5.07;;;13.70;99.90;;;;;;5076853;28;20173;-69
2022/06/04 03:56:23;;;;;;;5.18;4.68;;;13.80;99.90;;;;;;5077490;28;20585;-70
2022/06/04 03:58:49;;;;;;;7.70;5.05;;;13.80;99.90;;;;;;5076859;28;20244;-70
2022/06/04 04:01:22;;;;;;;6.20;5.00;;;13.90;99.90;;;;;;5077217;28;20224;-70
2022/06/04 04:03:47;;;;;;;7.38;5.32;;;13.90;99.90;;;;;;5075659;28;20166;-69
2022/06/04 04:06:17;;;;;;;6.40;5.22;;;13.90;99.90;;;;;;5076731;28;20685;-69
2022/06/04 04:08:43;;;;;;;7.55;5.60;;;13.90;99.90;;;;;;5076645;28;20315;-70
2022/06/04 04:11:14;;;;;;;7.40;5.25;;;13.90;99.90;;;;;;5076561;28;20713;-69
2022/06/04 04:13:40;;;;;;;7.95;5.38;;;13.80;99.90;;;;;;5076442;28;20198;-70
2022/06/04 04:16:08;;;;;;;7.35;5.25;;;13.90;99.90;;;;;;5074681;28;20200;-69
2022/06/04 04:18:35;;;;;;;6.05;4.93;;;13.90;99.90;;;;;;5074713;28;20435;-69
2022/06/04 04:21:09;;;;;;;9.02;4.78;;;14.10;99.90;;;;;;5076231;28;20215;-70
2022/06/04 04:23:35;;;;;;;6.40;5.28;;;14.10;99.90;;;;;;5074764;28;20170;-69
2022/06/04 04:26:02;;;;;;;7.70;5.47;;;14.20;99.90;;;;;;5076367;28;20181;-69
2022/06/04 04:28:28;;;;;;;8.18;5.10;;;14.20;99.90;;;;;;5076430;28;20224;-69
2022/06/04 04:30:54;;;;;;;7.40;4.70;;;14.20;99.90;;;;;;5075831;28;20197;-69
2022/06/04 04:33:20;;;;;;;5.97;5.25;;;14.30;99.90;;;;;;5074319;28;20213;-69
2022/06/04 04:35:46;;;;;;;6.00;4.88;;;14.30;99.90;;;;;;5075844;28;20200;-69
2022/06/04 04:38:12;;;;;;;7.40;5.40;;;14.30;99.90;;;;;;5075857;28;20645;-69
2022/06/04 04:40:41;;;;;;;6.88;5.13;;;14.30;99.90;;;;;;5075784;28;20221;-69
2022/06/04 04:43:07;;;;;;;9.23;5.43;;;14.40;99.90;;;;;;5075869;28;20205;-69
2022/06/04 04:45:33;;;;;;;7.05;5.40;;;14.40;99.90;;;;;;5076022;28;20197;-69
2022/06/04 04:47:59;;;;;;;7.93;5.15;;;14.40;99.90;;;;;;5075576;28;20205;-69
2022/06/04 04:50:32;;;;;;;6.45;5.50;;;14.40;99.90;;;;;;5075230;28;20189;-69
2022/06/04 04:52:59;;;;;;;6.80;5.30;;;14.50;99.90;;;;;;5075809;28;20245;-69
2022/06/04 04:55:25;;;;;;;9.43;5.20;;;14.50;99.90;;;;;;5075476;28;20193;-69
2022/06/04 04:57:51;;;;;;;6.25;4.85;;;14.50;99.90;;;;;;5075384;28;20205;-69
2022/06/04 05:00:19;;;;;;;7.45;5.20;;;14.50;99.90;;;;;;5074975;28;20189;-69
2022/06/04 05:02:45;;;;;;;6.80;5.35;;;14.50;99.90;;;;;;5075054;28;20248;-69
2022/06/04 05:05:12;;;;;;;6.32;5.53;;;14.50;99.90;;;;;;5074996;28;20166;-69
2022/06/04 05:07:40;;;;;;;6.15;5.38;;;14.50;99.90;;;;;;5075065;28;20178;-69
2022/06/04 05:10:08;;;;;;;6.88;5.22;;;14.60;99.90;;;;;;5075092;28;20589;-69
2022/06/04 05:12:34;;;;;;;6.55;5.05;;;14.60;99.90;;;;;;5075281;28;20587;-69
2022/06/04 05:15:00;;;;;;;6.47;5.03;;;14.70;99.90;;;;;;5074612;28;20224;-69
2022/06/04 05:17:26;;;;;;;8.02;4.95;;;14.80;99.90;;;;;;5073405;28;20318;-69
2022/06/04 05:19:53;;;;;;;7.10;5.40;;;15.00;99.90;;;;;;5074631;28;20170;-69
2022/06/04 05:22:19;;;;;;;6.97;5.63;;;15.00;99.90;;;;;;5074582;28;20170;-69
2022/06/04 05:24:44;;;;;;;6.60;5.35;;;15.10;99.90;;;;;;5074649;28;20174;-69
2022/06/04 05:27:10;;;;;;;9.88;5.40;;;15.10;99.90;;;;;;5073274;28;20224;-70
2022/06/04 05:29:37;;;;;;;6.72;5.30;;;15.10;99.90;;;;;;5073216;28;20227;-68
2022/06/04 05:32:04;;;;;;;8.27;5.53;;;15.10;99.90;;;;;;5074691;28;20193;-71
2022/06/04 05:34:31;;;;;;;6.35;5.03;;;15.10;99.90;;;;;;5073536;28;20198;-70
2022/06/04 05:36:58;;;;;;;8.68;5.65;;;15.20;99.90;;;;;;5073734;28;20284;-70
2022/06/04 05:39:24;;;;;;;6.90;4.80;;;15.30;99.90;;;;;;5075379;28;20581;-70
2022/06/04 05:41:51;;;;;;;5.90;5.25;;;15.40;99.90;;;;;;5075323;28;20201;-70
2022/06/04 05:44:17;;;;;;;8.25;5.95;;;15.50;99.90;;;;;;5073940;28;20697;-70
2022/06/04 05:46:44;;;;;;;7.55;4.93;;;15.50;99.90;;;;;;5075073;28;20582;-70
2022/06/04 05:49:12;;;;;;;8.70;5.70;;;15.60;99.90;;;;;;5073612;28;20173;-70
2022/06/04 05:51:40;;;;;;;7.40;5.30;;;15.60;99.90;;;;;;5075304;28;20189;-70
2022/06/04 05:54:06;;;;;;;8.85;4.75;;;15.60;99.90;;;;;;5075318;28;20169;-70
2022/06/04 05:56:35;;;;;;;9.00;5.68;;;15.70;99.90;;;;;;5073689;28;20283;-70
2022/06/04 05:59:05;;;;;;;6.75;4.97;;;15.60;99.90;;;;;;5073109;28;20639;-70
2022/06/04 06:01:32;;;;;;;6.75;4.97;;;15.70;99.90;;;;;;5074446;28;20197;-70
2022/06/04 06:03:58;;;;;;;6.40;4.80;;;15.70;99.90;;;;;;5072996;28;20227;-70
2022/06/04 06:06:27;;;;;;;7.63;5.03;;;15.70;99.90;;;;;;5073557;28;20170;-70
2022/06/04 06:08:55;;;;;;;9.35;5.57;;;15.70;99.90;;;;;;5074354;28;20181;-70
2022/06/04 06:11:22;;;;;;;6.78;5.03;;;15.80;99.90;;;;;;5073503;28;20201;-70
2022/06/04 06:13:49;;;;;;;5.85;5.10;;;15.80;99.90;;;;;;5074807;28;20257;-70
2022/06/04 06:16:21;;;;;;;6.05;5.30;;;15.90;99.90;;;;;;5073734;28;20169;-70
2022/06/04 06:18:47;;;;;;;5.50;4.68;;;15.90;99.90;;;;;;5074687;28;20177;-70
2022/06/04 06:21:16;;;;;;;5.80;5.13;;;16.00;99.90;;;;;;5075126;28;20202;-70
2022/06/04 06:23:43;;;;;;;6.57;4.80;;;16.10;99.90;;;;;;5074130;28;20172;-69
2022/06/04 06:26:12;;;;;;;6.35;4.80;;;16.20;99.90;;;;;;5074829;28;20174;-70
2022/06/04 06:28:39;;;;;;;6.93;4.82;;;16.30;99.90;;;;;;5074570;28;20203;-70
2022/06/04 06:31:06;;;;;;;7.50;4.85;;;16.40;99.90;;;;;;5074519;28;20649;-70
2022/06/04 06:33:32;;;;;;;7.90;5.43;;;16.40;99.90;;;;;;5074478;28;20189;-70
2022/06/04 06:36:00;;;;;;;6.05;4.72;;;16.50;99.90;;;;;;5074251;28;20196;-70
2022/06/04 06:38:27;;;;;;;5.18;4.68;;;16.50;99.90;;;;;;5074080;28;20197;-69
2022/06/04 06:40:54;;;;;;;5.93;5.32;;;16.60;99.90;;;;;;5074101;28;20239;-70
2022/06/04 06:43:21;;;;;;;5.80;4.18;;;16.70;99.90;;;;;;5074102;28;20169;-70
2022/06/04 06:45:47;;;;;;;5.55;4.80;;;16.80;99.90;;;;;;5074494;28;20170;-69
2022/06/04 06:48:13;;;;;;;5.72;4.25;;;16.90;99.90;;;;;;5072398;28;20174;-70
2022/06/04 06:50:39;;;;;;;7.07;5.22;;;17.00;99.90;;;;;;5072246;28;20225;-69
2022/06/04 06:53:05;;;;;;;8.07;4.68;;;17.10;99.90;;;;;;5072770;28;20220;-70
2022/06/04 06:55:32;;;;;;;7.00;4.72;;;17.10;99.90;;;;;;5072728;28;20182;-70
2022/06/04 06:57:57;;;;;;;5.28;4.75;;;17.10;99.90;;;;;;5074640;28;20600;-70
2022/06/04 07:00:24;;;;;;;5.15;4.45;;;17.10;99.90;;;;;;5074449;28;20292;-70
2022/06/04 07:02:50;;;;;;;5.88;4.85;;;17.20;99.90;;;;;;5074469;28;20173;-69
2022/06/04 07:05:16;;;;;;;7.63;5.50;;;17.20;99.90;;;;;;5073068;28;20163;-69
2022/06/04 07:07:42;;;;;;;6.40;5.35;;;17.30;99.90;;;;;;5073055;28;20673;-69
2022/06/04 07:10:09;;;;;;;9.00;5.35;;;17.20;99.90;;;;;;5073060;28;20204;-69
2022/06/04 07:12:35;;;;;;;5.97;5.03;;;17.20;99.90;;;;;;5073486;28;20170;-70
2022/06/04 07:15:01;;;;;;;7.03;5.30;;;17.30;99.90;;;;;;5072902;28;20193;-69
2022/06/04 07:17:27;;;;;;;7.88;5.68;;;17.30;99.90;;;;;;5071831;28;20212;-69
2022/06/04 07:19:54;;;;;;;7.30;5.00;;;17.40;99.90;;;;;;5073128;28;20208;-69
2022/06/04 07:22:20;;;;;;;6.72;5.00;;;17.30;99.90;;;;;;5073926;28;20190;-69
2022/06/04 07:24:45;;;;;;;6.13;4.95;;;17.40;99.90;;;;;;5077904;28;20247;-69
2022/06/04 07:27:11;;;;;;;7.10;4.90;;;17.40;99.90;;;;;;5077726;28;20177;-69
2022/06/04 07:29:37;;;;;;;10.15;5.47;;;17.60;99.90;;;;;;5077468;28;20161;-69
2022/06/04 07:32:04;;;;;;;7.03;5.78;;;17.70;99.90;;;;;;5077707;28;20190;-69
2022/06/04 07:34:30;;;;;;;6.50;5.45;;;17.90;99.90;;;;;;5077278;28;20210;-69
2022/06/04 07:36:56;;;;;;;6.50;5.75;;;18.00;99.90;;;;;;5077465;28;20202;-69
2022/06/04 07:39:22;;;;;;;6.70;4.72;;;18.10;99.90;;;;;;5077259;28;20203;-69
2022/06/04 07:41:53;;;;;;;5.05;4.28;;;18.40;99.90;;;;;;5077473;28;20194;-69
2022/06/04 07:44:21;;;;;;;8.23;6.22;;;18.60;99.90;;;;;;5075949;28;20236;-70
2022/06/04 07:46:48;;;;;;;6.38;5.10;;;18.80;99.90;;;;;;5075993;28;20204;-70
2022/06/04 07:49:15;;;;;;;7.32;5.57;;;19.00;99.90;;;;;;5077269;28;20656;-69
2022/06/04 07:51:42;;;;;;;6.55;5.72;;;19.00;99.90;;;;;;5075706;28;20202;-69
2022/06/04 07:54:09;;;;;;;7.30;5.22;;;19.00;99.90;;;;;;5077274;28;20174;-70
2022/06/04 07:56:36;;;;;;;6.38;5.55;;;18.80;99.90;;;;;;5076729;28;20174;-69
2022/06/04 07:59:03;;;;;;;8.07;5.38;;;18.90;99.90;;;;;;5076660;28;20166;-69
2022/06/04 08:01:28;;;;;;;8.05;6.00;;;18.90;99.90;;;;;;5076723;28;20739;-68
2022/06/04 08:03:55;;;;;;;7.07;4.93;;;19.10;99.90;;;;;;5076552;28;20178;-69
2022/06/04 08:06:21;;;;;;;8.68;5.53;;;19.20;99.90;;;;;;5076400;28;20166;-68
2022/06/04 08:08:50;;;;;;;6.50;4.95;;;19.30;99.90;;;;;;5075121;28;20187;-68
2022/06/04 08:11:31;;;;;;;6.95;5.10;;;19.50;99.90;;;;;;5075308;28;20267;-68
2022/06/04 08:14:07;;;;;;;8.00;5.40;;;19.50;99.90;;;;;;5076402;28;20189;-68
2022/06/04 08:16:35;;;;;;;7.28;5.18;;;19.60;99.90;;;;;;5076508;28;20201;-68
2022/06/04 08:19:01;;;;;;;7.68;5.30;;;19.60;99.90;;;;;;5074629;28;20173;-69
2022/06/04 08:21:26;;;;;;;6.28;5.35;;;19.60;99.90;;;;;;5076123;28;20209;-69
2022/06/04 08:23:52;;;;;;;7.20;5.55;;;19.40;99.90;;;;;;5075098;28;20166;-69
2022/06/04 08:26:18;;;;;;;6.13;4.85;;;19.30;99.90;;;;;;5076388;28;20166;-68
2022/06/04 08:28:44;;;;;;;8.02;5.47;;;19.30;99.90;;;;;;5077020;28;20237;-68
2022/06/04 08:31:13;;;;;;;6.03;5.38;;;19.10;99.90;;;;;;5076135;28;20279;-69
2022/06/04 08:33:39;;;;;;;7.95;5.38;;;19.30;99.90;;;;;;5075358;28;20209;-69
2022/06/04 08:36:07;;;;;;;5.35;4.40;;;19.40;99.90;;;;;;5079134;28;20518;-68
2022/06/04 08:38:33;;;;;;;7.00;5.05;;;19.40;99.90;;;;;;5076929;28;20324;-69
2022/06/04 08:41:02;;;;;;;6.22;5.43;;;19.60;99.90;;;;;;5076262;28;20194;-68
2022/06/04 08:43:53;;;;;;;7.53;4.85;;;19.70;99.90;;;;;;5076420;28;20257;-69
2022/06/04 08:46:23;;;;;;;6.03;4.70;;;19.80;99.90;;;;;;5076170;28;20204;-68
2022/06/04 08:48:50;;;;;;;7.63;5.68;;;19.90;99.90;;;;;;5076668;28;20154;-68
2022/06/04 08:51:28;;;;;;;5.72;5.07;;;20.00;99.90;;;;;;5075536;28;20228;-68
2022/06/04 08:53:56;;;;;;;8.93;5.60;;;20.10;99.90;;;;;;5075028;28;20177;-68
2022/06/04 08:59:34;;;;;;;6.45;5.00;;;20.20;99.90;;;;;;5076447;28;20161;-68
2022/06/04 09:02:02;;;;;;;6.85;5.35;;;20.30;99.90;;;;;;5074166;28;20224;-68
2022/06/04 09:04:53;;;;;;;6.38;5.15;;;20.20;99.90;;;;;;5073872;28;20182;-68
2022/06/04 09:07:31;;;;;;;7.35;4.43;;;20.30;99.90;;;;;;5075292;28;20591;-68
2022/06/04 09:10:16;;;;;;;8.02;5.60;;;20.30;99.90;;;;;;5073886;28;20216;-68
2022/06/04 09:12:51;;;;;;;5.13;4.10;;;20.30;99.90;;;;;;5075056;28;20235;-68
2022/06/04 09:15:27;;;;;;;6.53;4.57;;;20.30;99.90;;;;;;5075073;28;20184;-69
2022/06/04 09:17:56;;;;;;;8.88;5.80;;;20.40;99.90;;;;;;5075221;28;20238;-68
2022/06/04 09:20:28;;;;;;;7.80;5.72;;;20.40;99.90;;;;;;5073446;28;20685;-68
2022/06/04 09:23:19;;;;;;;7.65;5.90;;;20.40;99.90;;;;;;5073641;28;20181;-68
2022/06/04 09:25:52;;;;;;;8.35;5.32;;;20.30;99.90;;;;;;5065359;28;20194;-68
2022/06/04 09:28:26;;;;;;;5.38;4.30;;;20.30;99.90;;;;;;5073531;28;20185;-68
2022/06/04 09:31:13;;;;;;;9.00;5.90;;;20.60;99.90;;;;;;5074918;28;20193;-68
2022/06/04 09:34:01;;;;;;;5.70;4.47;;;20.90;99.90;;;;;;5073307;28;20208;-68
2022/06/04 09:36:31;;;;;;;5.70;4.95;;;21.30;99.90;;;;;;5074303;28;20669;-68
2022/06/04 09:39:00;;;;;;;9.70;5.45;;;21.60;99.90;;;;;;5087659;28;20212;-68
2022/06/04 09:41:29;;;;;;;6.30;5.13;;;21.90;99.90;;;;;;5094659;28;20418;-68
2022/06/04 09:44:06;;;;;;;6.22;4.53;;;22.20;99.90;;;;;;5095006;28;20552;-68
2022/06/04 09:46:33;;;;;;;8.07;5.10;;;22.40;99.90;;;;;;5094583;28;20169;-68
2022/06/04 09:49:01;;;;;;;8.57;4.78;;;22.40;99.90;;;;;;5094570;28;20172;-68
2022/06/04 09:51:42;;;;;;;4.97;4.43;;;22.40;99.90;;;;;;5094198;28;20212;-69
2022/06/04 09:54:32;;;;;;;4.43;3.95;;;22.50;99.90;;;;;;5094672;28;20165;-69
2022/06/04 09:57:05;;;;;;;6.07;4.03;;;22.60;99.90;;;;;;5094568;28;20193;-68
2022/06/04 09:59:34;;;;;;;6.50;5.25;;;22.90;99.90;;;;;;5094899;28;20668;-69
2022/06/04 10:02:10;;;;;;;5.18;3.67;;;23.10;99.90;;;;;;5092825;28;20193;-68
2022/06/04 10:04:43;;;;;;;5.85;4.15;;;23.10;99.90;;;;;;5094095;28;20660;-69
2022/06/04 10:07:13;;;;;;;10.18;4.78;;;23.10;99.90;;;;;;5094760;28;20165;-68
2022/06/04 10:09:56;;;;;;;5.43;4.35;;;22.90;99.90;;;;;;5094478;28;20531;-68
2022/06/04 10:15:44;;;;;;;5.38;4.28;;;22.50;99.90;;;;;;5094238;28;20208;-69
2022/06/04 10:18:29;;;;;;;6.25;3.72;;;22.40;99.90;;;;;;5094668;28;20545;-69
2022/06/04 10:21:07;;;;;;;4.50;3.88;;;22.30;99.90;;;;;;5093956;28;20196;-69
2022/06/04 10:23:48;;;;;;;6.45;4.65;;;22.20;99.90;;;;;;5092818;28;20176;-69
2022/06/04 10:26:25;;;;;;;6.78;4.47;;;22.10;99.90;;;;;;5094035;28;20522;-69
2022/06/04 10:29:03;;;;;;;5.95;4.70;;;22.00;99.90;;;;;;5094000;28;20153;-69
2022/06/04 10:32:05;;;;;;;5.18;4.28;;;21.90;99.90;;;;;;5092555;28;20212;-69
2022/06/04 10:34:58;;;;;;;5.25;4.22;;;21.70;99.90;;;;;;5093564;28;20165;-69
2022/06/04 10:37:48;;;;;;;9.50;4.55;;;21.80;99.90;;;;;;5092254;28;20250;-70
2022/06/04 10:40:35;;;;;;;5.00;3.67;;;21.80;99.90;;;;;;5072331;28;20198;-69
2022/06/04 10:43:26;;;;;;;4.88;4.28;;;21.80;99.90;;;;;;5073550;28;20176;-69
2022/06/04 10:46:06;;;;;;;6.75;4.55;;;21.80;99.90;;;;;;5073661;28;20185;-69
2022/06/04 10:48:52;;;;;;;5.45;4.30;;;21.90;99.90;;;;;;5073674;28;20211;-68
2022/06/04 10:51:47;;;;;;;5.43;3.83;;;21.90;99.90;;;;;;5073398;28;20198;-69
2022/06/04 10:54:27;;;;;;;5.57;4.10;;;22.00;99.90;;;;;;5068549;28;20233;-68
2022/06/04 10:57:12;;;;;;;5.53;4.40;;;21.90;99.90;;;;;;5074858;28;20254;-69
2022/06/04 10:59:50;;;;;;;4.70;4.20;;;22.00;99.90;;;;;;5077759;28;20162;-69
2022/06/04 11:02:26;;;;;;;7.65;4.43;;;22.10;99.90;;;;;;5077372;28;20201;-68
2022/06/04 11:05:04;;;;;;;5.40;4.03;;;22.20;99.90;;;;;;5077272;28;20165;-68
2022/06/04 11:07:42;;;;;;;6.88;4.28;;;22.30;99.90;;;;;;5077904;28;20195;-69
2022/06/04 11:10:17;;;;;;;6.53;4.10;;;22.50;99.90;;;;;;5077166;28;20733;-68
2022/06/04 11:12:50;;;;;;;3.60;3.30;;;22.60;99.90;;;;;;5076007;28;20177;-68
2022/06/04 11:15:23;;;;;;;4.10;3.70;;;22.60;99.90;;;;;;5075789;28;20200;-68
2022/06/04 11:17:58;;;;;;;4.70;3.80;;;22.70;99.90;;;;;;5077233;28;20568;-68
2022/06/04 11:20:38;;;;;;;5.00;3.70;;;22.70;99.90;;;;;;5076750;28;20243;-68
2022/06/04 11:23:12;;;;;;;3.92;3.30;;;22.80;99.90;;;;;;5077387;28;20158;-68
2022/06/04 11:25:42;;;;;;;4.15;3.67;;;22.80;99.90;;;;;;5077230;28;20154;-69
2022/06/04 11:28:12;;;;;;;6.13;3.80;;;22.90;99.90;;;;;;5075679;28;20203;-69
2022/06/04 11:30:41;;;;;;;7.35;4.55;;;22.90;99.90;;;;;;5075513;28;20229;-69
2022/06/04 11:33:37;;;;;;;5.40;4.13;;;22.80;99.90;;;;;;5076686;28;20178;-69
2022/06/04 11:36:18;;;;;;;4.20;3.65;;;22.90;99.90;;;;;;5075274;28;20170;-68
2022/06/04 11:39:05;;;;;;;5.03;3.83;;;23.00;99.90;;;;;;5086657;28;20216;-69
2022/06/04 11:41:50;;;;;;;5.28;3.63;;;23.20;99.90;;;;;;5095848;28;20235;-68
2022/06/04 11:44:37;;;;;;;6.05;4.03;;;23.50;99.90;;;;;;5097143;28;20252;-68
2022/06/04 11:47:37;;;;;;;7.22;3.85;;;23.90;99.90;;;;;;5097185;28;20254;-69
2022/06/04 11:50:09;;;;;;;4.60;2.97;;;24.10;99.90;;;;;;5096841;28;20206;-69
2022/06/04 11:53:04;;;;;;;5.70;3.40;;;24.30;99.90;;;;;;5095714;28;20169;-69
2022/06/04 11:55:43;;;;;;;4.90;4.00;;;24.50;99.90;;;;;;5092766;28;20280;-69
2022/06/04 11:58:18;;;;;;;8.02;3.85;;;24.40;99.90;;;;;;5097190;28;20518;-69
2022/06/04 12:00:48;;;;;;;3.78;3.05;;;24.50;99.90;;;;;;5096722;28;20191;-73
2022/06/04 12:03:39;;;;;;;4.57;3.72;;;24.50;99.90;;;;;;5096637;28;20668;-73
2022/06/04 12:06:13;;;;;;;3.92;3.28;;;24.90;99.90;;;;;;5096199;28;20184;-72
2022/06/04 12:09:12;;;;;;;6.53;3.65;;;25.10;99.90;;;;;;5084488;28;20195;-72
2022/06/04 12:11:44;;;;;;;5.43;3.20;;;25.10;99.90;;;;;;5073986;28;20237;-70
2022/06/04 12:14:15;;;;;;;4.43;4.03;;;25.30;99.90;;;;;;5076071;28;20189;-73
2022/06/04 12:16:42;;;;;;;6.97;3.45;;;25.30;99.90;;;;;;5076048;28;20166;-73
2022/06/04 12:25:19;;;;;;;5.53;3.30;;;25.80;99.90;;;;;;5076310;28;20161;-69
2022/06/04 12:27:57;;;;;;;4.90;3.38;;;25.90;99.90;;;;;;5075903;28;20627;-68
2022/06/04 12:30:34;;;;;;;5.63;3.38;;;26.00;99.90;;;;;;5076318;28;20193;-68
2022/06/04 12:33:03;;;;;;;3.72;2.75;;;26.10;99.90;;;;;;5075942;28;20169;-68
2022/06/04 12:35:29;;;;;;;6.35;2.90;;;26.40;99.90;;;;;;5075577;28;20175;-68
2022/06/04 12:37:58;;;;;;;4.22;2.85;;;26.80;99.90;;;;;;5075696;28;20194;-73
2022/06/04 12:40:29;;;;;;;3.25;2.85;;;26.90;99.90;;;;;;5075808;28;20617;-72
2022/06/04 12:43:07;;;;;;;3.47;3.10;;;27.00;99.90;;;;;;5074334;28;20264;-73
2022/06/04 12:45:39;;;;;;;4.28;3.35;;;27.10;99.90;;;;;;5075537;28;20681;-73
2022/06/04 12:48:37;;;;;;;4.43;3.00;;;27.00;99.90;;;;;;5074328;28;20177;-73
2022/06/04 12:51:06;;;;;;;3.20;2.90;;;27.00;99.90;;;;;;5075320;28;20196;-74
2022/06/04 12:53:36;;;;;;;2.70;2.50;;;27.10;99.90;;;;;;5075394;28;20178;-73
2022/06/04 12:56:06;;;;;;;2.70;2.50;;;27.20;99.90;;;;;;5075348;28;20174;-73
2022/06/04 12:58:42;;;;;;;3.75;2.75;;;27.30;99.90;;;;;;5075558;28;20186;-73
2022/06/04 13:01:20;;;;;;;3.38;2.53;;;27.50;99.90;;;;;;5075662;28;20193;-73
2022/06/04 13:04:03;;;;;;;5.63;2.47;;;27.40;99.90;;;;;;5076049;28;20533;-69
2022/06/04 13:06:45;;;;;;;3.15;2.55;;;27.30;99.90;;;;;;5074931;28;20165;-68
2022/06/04 13:09:15;;;;;;;2.88;2.38;;;27.00;99.90;;;;;;5075215;28;20181;-68
2022/06/04 13:11:44;;;;;;;3.17;2.60;;;26.70;99.90;;;;;;5073699;28;20193;-68
2022/06/04 13:14:32;;;;;;;6.00;2.60;;;26.30;99.90;;;;;;5073332;28;20239;-71
2022/06/04 13:17:10;;;;;;;2.65;2.25;;;25.90;99.90;;;;;;5075245;28;20617;-69
2022/06/04 13:19:47;;;;;;;4.30;2.67;;;25.80;99.90;;;;;;5074712;28;20634;-69
2022/06/04 13:22:32;;;;;;;4.55;2.47;;;26.10;99.90;;;;;;5074595;28;20224;-69
2022/06/04 13:25:01;;;;;;;2.92;2.33;;;26.70;99.90;;;;;;5075389;28;20158;-69
2022/06/04 13:27:54;;;;;;;2.90;2.60;;;27.40;99.90;;;;;;5074670;28;20181;-69
2022/06/04 13:30:35;;;;;;;2.90;2.70;;;28.20;99.90;;;;;;5073930;28;20209;-69
2022/06/04 13:33:13;;;;;;;3.58;2.70;;;28.60;99.90;;;;;;5073452;28;20178;-68
2022/06/04 13:35:45;;;;;;;2.60;2.40;;;29.00;99.90;;;;;;5074517;28;20245;-69